Time;durP1;ratioP1;P1;durP2;ratioP2;P2;SDS_P1;SDS_P2;PMS_P1;PMS_P2;Temp;Humidity;BMP_temperature;BMP_pressure;BME280_temperature;BME280_humidity;BME280_pressure;Samples;Min_cycle;Max_cycle;Signal;HPM_P1;HPM_P2
2024/01/25 00:01:37;;;;;;;;;11.00;6.33;;;;;-144.24;100.00;83466.09;5019333;28;55260;-75
2024/01/25 00:04:02;;;;;;;;;5.67;4.33;;;;;-144.24;100.00;82687.75;5019289;28;45371;-73
2024/01/25 00:06:28;;;;;;;;;12.00;6.00;;;;;-144.24;100.00;81824.69;5022308;28;45415;-76
2024/01/25 00:08:53;;;;;;;;;6.00;4.00;;;;;-144.24;100.00;81103.25;5023722;28;46622;-73
2024/01/25 00:11:18;;;;;;;;;9.00;5.00;;;;;-144.24;100.00;80541.53;5019699;28;45468;-72
2024/01/25 00:13:44;;;;;;;;;5.67;4.33;;;;;-144.24;100.00;79987.97;5023731;28;62660;-73
2024/01/25 00:16:09;;;;;;;;;4.00;4.00;;;;;-144.24;100.00;79697.09;5018186;28;62577;-73
2024/01/25 00:18:34;;;;;;;;;9.33;5.67;;;;;-144.24;100.00;79444.59;5021538;28;70616;-76
2024/01/25 00:21:00;;;;;;;;;6.33;5.00;;;;;-144.24;100.00;79081.06;5023345;28;61672;-74
2024/01/25 00:23:26;;;;;;;;;7.00;4.33;;;;;-144.24;100.00;79085.09;5018229;28;64283;-74
2024/01/25 00:25:51;;;;;;;;;7.33;5.00;;;;;-144.24;100.00;78846.78;5017419;28;45449;-73
2024/01/25 00:28:16;;;;;;;;;9.33;4.67;;;;;-144.24;100.00;78683.22;5024335;28;45649;-72
2024/01/25 00:30:42;;;;;;;;;7.67;6.00;;;;;-144.24;100.00;78291.44;5018120;28;68779;-73
2024/01/25 00:33:07;;;;;;;;;7.00;3.00;;;;;-144.24;100.00;77919.94;5019023;28;45378;-73
2024/01/25 00:35:33;;;;;;;;;6.33;3.33;;;;;-144.24;100.00;77619.09;5019488;28;45345;-73
2024/01/25 00:38:00;;;;;;;;;4.67;3.67;;;;;-144.24;100.00;77237.53;5017299;28;46027;-73
2024/01/25 00:40:25;;;;;;;;;10.00;3.33;;;;;-144.24;100.00;77235.53;5023640;28;45422;-73
2024/01/25 00:42:54;;;;;;;;;6.00;3.00;;;;;-144.24;100.00;76858.03;5019027;28;45318;-73
2024/01/25 00:45:20;;;;;;;;;2.33;2.33;;;;;-144.24;100.00;76815.66;5019664;28;45414;-74
2024/01/25 00:47:46;;;;;;;;;5.00;4.00;;;;;-144.24;100.00;76686.47;5018356;28;47354;-74
2024/01/25 00:50:12;;;;;;;;;5.00;2.00;;;;;-144.24;100.00;76456.38;5024951;28;45208;-73
2024/01/25 00:52:37;;;;;;;;;7.00;4.00;;;;;-144.24;100.00;76670.31;5018377;28;45552;-74
2024/01/25 00:55:03;;;;;;;;;5.67;5.00;;;;;-144.24;100.00;76244.44;5022437;28;45272;-76
2024/01/25 00:57:29;;;;;;;;;6.00;5.00;;;;;-144.24;100.00;76274.72;5032384;28;45462;-72
2024/01/25 00:59:55;;;;;;;;;8.00;4.00;;;;;-144.24;100.00;76226.28;5020000;28;45342;-75
2024/01/25 01:02:21;;;;;;;;;5.33;4.00;;;;;-144.24;100.00;75951.81;5014528;28;45394;-72
2024/01/25 01:04:47;;;;;;;;;12.67;4.67;;;;;-144.24;100.00;75913.47;5019701;28;45595;-73
2024/01/25 01:07:13;;;;;;;;;5.00;5.00;;;;;-144.24;100.00;75770.19;5018970;28;45720;-73
2024/01/25 01:09:38;;;;;;;;;3.00;3.00;;;;;-144.24;100.00;75913.47;5019082;28;45449;-72
2024/01/25 01:12:03;;;;;;;;;9.67;6.00;;;;;-144.24;100.00;75606.75;5021334;28;56406;-72
2024/01/25 01:14:29;;;;;;;;;5.33;4.67;;;;;-144.24;100.00;75507.88;5019260;28;45391;-74
2024/01/25 01:16:55;;;;;;;;;10.00;5.00;;;;;-144.24;100.00;75665.25;5019071;28;72217;-74
2024/01/25 01:19:20;;;;;;;;;9.00;5.00;;;;;-144.24;100.00;75542.16;5018135;28;45395;-76
2024/01/25 01:21:46;;;;;;;;;6.00;4.67;;;;;-144.24;100.00;75314.16;5020166;28;68415;-74
2024/01/25 01:24:11;;;;;;;;;7.00;2.67;;;;;-144.24;100.00;75465.50;5024306;28;63443;-73
2024/01/25 01:26:37;;;;;;;;;8.33;4.00;;;;;-144.24;100.00;75370.66;5020922;28;45602;-73
2024/01/25 01:29:03;;;;;;;;;7.67;5.00;;;;;-144.24;100.00;75388.81;5017968;28;45426;-75
2024/01/25 01:31:28;;;;;;;;;5.00;4.00;;;;;-144.24;100.00;75241.50;5018096;28;45289;-74
2024/01/25 01:33:53;;;;;;;;;9.00;4.00;;;;;-144.24;100.00;75176.94;5018010;28;65487;-74
2024/01/25 01:36:19;;;;;;;;;8.67;4.00;;;;;-144.24;100.00;75055.88;5023433;28;46435;-75
2024/01/25 01:38:44;;;;;;;;;6.00;3.00;;;;;-144.24;100.00;75068.00;5019128;28;45453;-73
2024/01/25 01:41:13;;;;;;;;;9.00;6.00;;;;;-144.24;100.00;75037.72;5022667;28;66779;-73
2024/01/25 01:43:39;;;;;;;;;6.67;5.67;;;;;-144.24;100.00;75063.97;5024121;28;45363;-74
2024/01/25 01:46:10;;;;;;;;;5.67;4.00;;;;;-144.24;100.00;75124.50;5020957;28;46567;-75
2024/01/25 01:48:35;;;;;;;;;7.00;3.00;;;;;-144.24;100.00;75108.34;5017701;28;45435;-75
2024/01/25 01:51:00;;;;;;;;;5.00;4.00;;;;;-144.24;100.00;74985.28;5017544;28;45436;-74
2024/01/25 01:53:26;;;;;;;;;3.67;3.67;;;;;-144.24;100.00;74957.03;5017525;28;57791;-74
2024/01/25 01:55:52;;;;;;;;;7.67;5.00;;;;;-144.24;100.00;74995.38;5016203;28;73107;-73
2024/01/25 01:58:18;;;;;;;;;6.33;3.33;;;;;-144.24;100.00;75132.56;5021570;28;45387;-74
2024/01/25 02:00:45;;;;;;;;;7.00;4.00;;;;;-144.24;100.00;75110.38;5021044;28;45549;-74
2024/01/25 02:03:11;;;;;;;;;7.00;4.00;;;;;-144.24;100.00;75102.28;5026702;28;63959;-74
2024/01/25 02:05:36;;;;;;;;;7.00;4.00;;;;;-144.24;100.00;74860.19;5018074;28;66996;-73
2024/01/25 02:08:02;;;;;;;;;6.00;3.33;;;;;-144.24;100.00;74781.50;5018253;28;70906;-74
2024/01/25 02:10:28;;;;;;;;;9.00;3.33;;;;;-144.24;100.00;74666.50;5018185;28;45489;-74
2024/01/25 02:12:53;;;;;;;;;6.00;5.33;;;;;-144.24;100.00;74577.75;5016294;28;65151;-74
2024/01/25 02:15:18;;;;;;;;;4.33;4.00;;;;;-144.24;100.00;74406.28;5017144;28;45563;-73
2024/01/25 02:17:44;;;;;;;;;7.33;3.33;;;;;-144.24;100.00;74434.50;5016669;28;45477;-74
2024/01/25 02:20:09;;;;;;;;;7.67;4.00;;;;;-144.24;100.00;74140.00;5016426;28;66673;-74
2024/01/25 02:22:35;;;;;;;;;5.00;2.00;;;;;-144.24;100.00;74337.69;5017460;28;45400;-76
2024/01/25 02:25:00;;;;;;;;;5.67;3.33;;;;;-144.24;100.00;74182.34;5015882;28;73003;-74
2024/01/25 02:27:25;;;;;;;;;5.00;5.00;;;;;-144.24;100.00;73799.09;5016736;28;45457;-73
2024/01/25 02:29:51;;;;;;;;;6.00;4.33;;;;;-144.24;100.00;73516.75;5016306;28;68493;-73
2024/01/25 02:32:16;;;;;;;;;6.33;4.00;;;;;-144.24;100.00;73329.19;5019090;28;46273;-74
2024/01/25 02:34:41;;;;;;;;;4.67;3.33;;;;;-144.24;100.00;73268.69;5025514;28;74642;-75
2024/01/25 02:37:07;;;;;;;;;10.67;4.00;;;;;-144.24;100.00;73060.97;5015905;28;70919;-75
2024/01/25 02:39:32;;;;;;;;;7.00;3.33;;;;;-144.24;100.00;72839.13;5017074;28;45319;-73
2024/01/25 02:41:57;;;;;;;;;9.67;5.67;;;;;-144.24;100.00;72544.75;5021894;28;59878;-74
2024/01/25 02:44:22;;;;;;;;;11.00;5.00;;;;;-144.24;100.00;72544.75;5015731;28;69209;-74
2024/01/25 02:46:48;;;;;;;;;6.67;6.33;;;;;-144.24;100.00;72691.94;5017167;28;67749;-74
2024/01/25 02:49:13;;;;;;;;;7.33;5.00;;;;;-144.24;100.00;72583.06;5016269;28;45356;-73
2024/01/25 02:51:38;;;;;;;;;4.67;4.00;;;;;-144.24;100.00;72635.47;5016341;28;59890;-74
2024/01/25 02:54:04;;;;;;;;;6.33;6.00;;;;;-144.24;100.00;72387.47;5015554;28;72054;-73
2024/01/25 02:56:34;;;;;;;;;9.67;5.00;;;;;-144.24;100.00;72246.31;5015921;28;70579;-74
2024/01/25 02:59:00;;;;;;;;;9.33;5.00;;;;;-144.24;100.00;72369.31;5012102;28;45495;-75
2024/01/25 03:01:26;;;;;;;;;5.00;4.00;;;;;-144.24;100.00;72026.56;5014950;28;46147;-74
2024/01/25 03:03:51;;;;;;;;;4.00;4.00;;;;;-144.24;100.00;71843.09;5016149;28;46571;-74
2024/01/25 03:06:16;;;;;;;;;8.67;4.00;;;;;-144.24;100.00;71951.97;5015644;28;65695;-76
2024/01/25 03:08:41;;;;;;;;;7.00;4.00;;;;;-144.24;100.00;71516.53;5015573;28;62376;-74
2024/01/25 03:11:07;;;;;;;;;8.33;5.67;;;;;-144.24;100.00;71613.28;5015674;28;55634;-74
2024/01/25 03:13:34;;;;;;;;;6.00;4.67;;;;;-144.24;100.00;71585.06;5012192;28;59455;-73
2024/01/25 03:15:59;;;;;;;;;5.00;5.00;;;;;-144.24;100.00;71419.78;5016391;28;45443;-73
2024/01/25 03:18:24;;;;;;;;;7.67;4.67;;;;;-144.24;100.00;71300.84;5015381;28;59563;-73
2024/01/25 03:20:51;;;;;;;;;4.00;4.00;;;;;-144.24;100.00;71093.22;5015460;28;63700;-73
2024/01/25 03:23:16;;;;;;;;;5.00;3.00;;;;;-144.24;100.00;71067.03;5024240;28;45477;-75
2024/01/25 03:25:41;;;;;;;;;7.00;4.33;;;;;-144.24;100.00;70980.34;5016616;28;45532;-73
2024/01/25 03:28:09;;;;;;;;;6.00;4.67;;;;;-144.24;100.00;70984.38;5015250;28;65506;-73
2024/01/25 03:30:34;;;;;;;;;6.00;4.00;;;;;-144.24;100.00;70962.22;5015139;28;45563;-74
2024/01/25 03:33:00;;;;;;;;;5.67;5.67;;;;;-144.24;100.00;70807.00;5015846;28;45776;-74
2024/01/25 03:35:25;;;;;;;;;8.00;4.00;;;;;-144.24;100.00;70702.22;5014953;28;67925;-74
2024/01/25 03:37:50;;;;;;;;;7.00;4.00;;;;;-144.24;100.00;70621.59;5015593;28;45438;-74
2024/01/25 03:40:16;;;;;;;;;5.00;3.00;;;;;-144.24;100.00;70545.00;5015721;28;60620;-73
2024/01/25 03:42:41;;;;;;;;;5.33;4.00;;;;;-144.24;100.00;70522.84;5014107;28;45778;-74
2024/01/25 03:45:07;;;;;;;;;6.00;5.00;;;;;-144.24;100.00;70456.34;5014453;28;57171;-74
2024/01/25 03:47:32;;;;;;;;;6.00;4.00;;;;;-144.24;100.00;70325.34;5015778;28;45469;-73
2024/01/25 03:49:58;;;;;;;;;10.00;4.33;;;;;-144.24;100.00;70418.03;5015127;28;61813;-74
2024/01/25 03:52:23;;;;;;;;;3.33;1.67;;;;;-144.24;100.00;70041.19;5016764;28;47685;-73
2024/01/25 03:54:49;;;;;;;;;1.00;1.00;;;;;-144.24;100.00;69940.44;5015803;28;45427;-74
2024/01/25 03:57:14;;;;;;;;;2.67;1.00;;;;;-144.24;100.00;70232.66;5020900;28;62648;-74
2024/01/25 03:59:39;;;;;;;;;1.00;1.00;;;;;-144.24;100.00;70262.88;5017419;28;45462;-74
2024/01/25 04:02:05;;;;;;;;;2.67;1.00;;;;;-144.24;100.00;70101.66;5015457;28;45754;-73
2024/01/25 04:04:30;;;;;;;;;4.00;1.67;;;;;-144.24;100.00;70158.09;5017245;28;71726;-74
2024/01/25 04:06:55;;;;;;;;;2.00;1.00;;;;;-144.24;100.00;69930.38;5019747;28;45366;-73
2024/01/25 04:09:21;;;;;;;;;3.00;1.00;;;;;-144.24;100.00;69851.78;5018667;28;66832;-73
2024/01/25 04:11:46;;;;;;;;;3.67;1.00;;;;;-144.24;100.00;69912.25;5014677;28;75359;-74
2024/01/25 04:14:11;;;;;;;;;2.00;1.00;;;;;-144.24;100.00;69688.59;5018624;28;67890;-73
2024/01/25 04:16:37;;;;;;;;;0.00;0.00;;;;;-144.24;100.00;69628.13;5015433;28;45428;-74
2024/01/25 04:19:02;;;;;;;;;1.33;1.33;;;;;-144.24;100.00;69616.03;5015965;28;45454;-73
2024/01/25 04:21:28;;;;;;;;;3.00;1.00;;;;;-144.24;100.00;69668.44;5014828;28;64668;-74
2024/01/25 04:23:53;;;;;;;;;3.33;1.67;;;;;-144.24;100.00;69543.50;5015513;28;45405;-74
2024/01/25 04:26:18;;;;;;;;;3.33;2.00;;;;;-144.24;100.00;69614.03;5016053;28;45756;-73
2024/01/25 04:28:44;;;;;;;;;2.00;2.00;;;;;-144.24;100.00;69529.41;5015722;28;64529;-73
2024/01/25 04:31:09;;;;;;;;;8.00;4.33;;;;;-144.24;100.00;69325.91;5017581;28;71708;-72
2024/01/25 04:33:34;;;;;;;;;3.67;2.33;;;;;-144.24;100.00;69450.81;5018754;28;45237;-74
2024/01/25 04:36:00;;;;;;;;;6.67;2.00;;;;;-144.24;100.00;69499.19;5020453;28;45355;-72
2024/01/25 04:38:25;;;;;;;;;5.33;4.67;;;;;-144.24;100.00;69295.69;5025240;28;45404;-73
2024/01/25 04:40:51;;;;;;;;;5.33;3.33;;;;;-144.24;100.00;69303.75;5023808;28;46404;-75
2024/01/25 04:43:16;;;;;;;;;5.33;5.00;;;;;-144.24;100.00;69136.53;5022184;28;70734;-76
2024/01/25 04:45:41;;;;;;;;;3.67;2.67;;;;;-144.24;100.00;69035.81;5017482;28;65289;-75
2024/01/25 04:48:07;;;;;;;;;5.67;4.33;;;;;-144.24;100.00;68836.34;5023615;28;58997;-73
2024/01/25 04:50:32;;;;;;;;;7.00;7.00;;;;;-144.24;100.00;68606.72;5026191;28;45920;-75
2024/01/25 04:52:57;;;;;;;;;8.67;6.33;;;;;-144.24;100.00;68731.59;5017439;28;70161;-73
2024/01/25 04:55:23;;;;;;;;;11.67;9.67;;;;;-144.24;100.00;68624.84;5018316;28;56019;-74
2024/01/25 04:57:53;;;;;;;;;11.33;9.00;;;;;-144.24;100.00;68518.09;5019268;28;45245;-73
2024/01/25 05:00:18;;;;;;;;;15.00;13.67;;;;;-144.24;100.00;68820.25;5025280;28;45734;-73
2024/01/25 05:02:44;;;;;;;;;13.00;10.67;;;;;-144.24;100.00;68598.66;5017863;28;46511;-74
2024/01/25 05:05:09;;;;;;;;;13.33;12.00;;;;;-144.24;100.00;68649.00;5037036;28;45509;-74
2024/01/25 05:07:35;;;;;;;;;16.00;10.00;;;;;-144.24;100.00;68520.09;5018583;28;45536;-74
2024/01/25 05:10:00;;;;;;;;;13.67;13.00;;;;;-144.24;100.00;68608.72;5018584;28;45564;-73
2024/01/25 05:12:25;;;;;;;;;14.67;7.67;;;;;-144.24;100.00;68508.00;5026215;28;45461;-74
2024/01/25 05:14:51;;;;;;;;;17.67;12.00;;;;;-144.24;100.00;68356.94;5017602;28;66696;-72
2024/01/25 05:17:16;;;;;;;;;14.33;12.00;;;;;-144.24;100.00;68113.22;5018891;28;54439;-73
2024/01/25 05:19:41;;;;;;;;;17.33;10.00;;;;;-144.24;100.00;68133.38;5016667;28;46608;-73
2024/01/25 05:22:07;;;;;;;;;14.67;11.00;;;;;-144.24;100.00;67867.50;5017989;28;45371;-74
2024/01/25 05:24:33;;;;;;;;;12.67;10.00;;;;;-144.24;100.00;67988.34;5018380;28;45395;-75
2024/01/25 05:26:59;;;;;;;;;15.67;12.67;;;;;-144.24;100.00;67865.50;5016779;28;45621;-75
2024/01/25 05:29:24;;;;;;;;;13.67;7.67;;;;;-144.24;100.00;67744.66;5018985;28;46233;-73
2024/01/25 05:31:49;;;;;;;;;13.00;10.00;;;;;-144.24;100.00;67712.44;5024467;28;55013;-74
2024/01/25 05:34:15;;;;;;;;;15.67;12.67;;;;;-144.24;100.00;67438.56;5017679;28;45384;-74
2024/01/25 05:36:41;;;;;;;;;13.00;9.33;;;;;-144.24;100.00;67430.50;5018946;28;45441;-73
2024/01/25 05:39:07;;;;;;;;;12.00;9.00;;;;;-144.24;100.00;67577.50;5017480;28;45940;-74
2024/01/25 05:41:33;;;;;;;;;15.00;12.67;;;;;-144.24;100.00;67150.59;5021776;28;45620;-74
2024/01/25 05:43:59;;;;;;;;;16.33;14.33;;;;;-144.24;100.00;67106.28;5016601;28;45524;-73
2024/01/25 05:46:24;;;;;;;;;13.33;11.33;;;;;-144.24;100.00;66816.34;5015189;28;45438;-74
2024/01/25 05:48:50;;;;;;;;;15.33;11.67;;;;;-144.24;100.00;66637.16;5032864;28;46368;-73
2024/01/25 05:51:15;;;;;;;;;14.67;12.00;;;;;-144.24;100.00;66296.91;5017115;28;58585;-75
2024/01/25 05:53:40;;;;;;;;;17.33;13.67;;;;;-144.24;100.00;65906.34;5016924;28;66563;-74
2024/01/25 05:56:06;;;;;;;;;14.00;13.00;;;;;-144.24;100.00;65986.88;5017965;28;64239;-73
2024/01/25 05:58:31;;;;;;;;;13.33;12.00;;;;;-144.24;100.00;65926.50;5027686;28;47549;-74
2024/01/25 06:00:57;;;;;;;;;15.67;13.67;;;;;-144.24;100.00;65763.44;5017478;28;45448;-74
2024/01/25 06:03:22;;;;;;;;;12.00;12.00;;;;;-144.24;100.00;65582.28;5022142;28;66276;-74
2024/01/25 06:05:47;;;;;;;;;15.33;12.33;;;;;-144.24;100.00;65548.06;5019944;28;60987;-73
2024/01/25 06:08:13;;;;;;;;;21.33;14.67;;;;;-144.24;100.00;65604.41;5024733;28;66373;-73
2024/01/25 06:10:39;;;;;;;;;21.67;15.00;;;;;-144.24;100.00;65089.16;5016574;28;45477;-73
2024/01/25 06:13:04;;;;;;;;;20.67;15.67;;;;;-144.24;100.00;65115.31;5017554;28;45481;-74
2024/01/25 06:15:31;;;;;;;;;21.00;16.33;;;;;-144.24;100.00;64992.56;5033285;28;45253;-73
2024/01/25 06:17:57;;;;;;;;;17.00;12.33;;;;;-144.24;100.00;64893.94;5019586;28;46201;-73
2024/01/25 06:20:22;;;;;;;;;20.33;20.33;;;;;-144.24;100.00;64698.72;5016791;28;45359;-73
2024/01/25 06:22:47;;;;;;;;;18.67;13.00;;;;;-144.24;100.00;64475.38;5017264;28;45412;-73
2024/01/25 06:25:13;;;;;;;;;15.00;13.33;;;;;-144.24;100.00;63233.97;5020873;28;45561;-74
2024/01/25 06:27:38;;;;;;;;;23.00;19.00;;;;;-144.24;100.00;63139.44;5015749;28;60379;-75
2024/01/25 06:30:04;;;;;;;;;19.00;18.67;;;;;-144.24;100.00;63127.38;5016034;28;46466;-73
2024/01/25 06:32:29;;;;;;;;;19.00;16.00;;;;;-144.24;100.00;63006.66;5014659;28;45390;-74
2024/01/25 06:34:55;;;;;;;;;20.33;17.33;;;;;-144.24;100.00;62978.50;5015687;28;64324;-73
2024/01/25 06:37:20;;;;;;;;;21.33;18.33;;;;;-144.24;100.00;63054.94;5016613;28;74265;-74
2024/01/25 06:39:45;;;;;;;;;18.33;18.33;;;;;-144.24;100.00;62912.13;5016088;28;45472;-74
2024/01/25 06:42:11;;;;;;;;;17.67;17.67;;;;;-144.24;100.00;62702.94;5019376;28;46190;-75
2024/01/25 06:44:36;;;;;;;;;25.67;21.00;;;;;-144.24;100.00;62853.78;5015592;28;65164;-74
2024/01/25 06:47:01;;;;;;;;;24.33;21.33;;;;;-144.24;100.00;62877.94;5015085;28;46492;-75
2024/01/25 06:49:27;;;;;;;;;19.00;18.67;;;;;-144.24;100.00;62745.19;5017559;28;65884;-74
2024/01/25 06:51:52;;;;;;;;;22.00;21.00;;;;;-144.24;100.00;62777.34;5024210;28;45389;-73
2024/01/25 06:54:17;;;;;;;;;18.00;16.67;;;;;-144.24;100.00;62626.50;5014145;28;62260;-74
2024/01/25 06:56:43;;;;;;;;;22.00;18.67;;;;;-144.24;100.00;62509.84;5017793;28;69750;-74
2024/01/25 06:59:08;;;;;;;;;21.00;19.00;;;;;-144.24;100.00;62463.59;5014242;28;65306;-73
2024/01/25 07:01:33;;;;;;;;;23.67;21.00;;;;;-144.24;100.00;62560.13;5017897;28;52407;-74
2024/01/25 07:03:59;;;;;;;;;25.33;20.00;;;;;-144.24;100.00;62348.94;5016014;28;45422;-74
2024/01/25 07:06:26;;;;;;;;;21.33;20.33;;;;;-144.24;100.00;62463.59;5024297;28;52319;-74
2024/01/25 07:08:51;;;;;;;;;17.67;16.00;;;;;-144.24;100.00;62151.84;5019427;28;45255;-75
2024/01/25 07:11:17;;;;;;;;;17.67;16.00;;;;;-144.24;100.00;62119.69;5016713;28;45402;-73
2024/01/25 07:13:42;;;;;;;;;21.33;18.67;;;;;-144.24;100.00;62081.47;5015919;28;45339;-72
2024/01/25 07:16:07;;;;;;;;;16.67;15.00;;;;;-144.24;100.00;61956.78;5019021;28;46688;-75
2024/01/25 07:18:33;;;;;;;;;23.00;19.33;;;;;-144.24;100.00;61727.53;5015502;28;45337;-75
2024/01/25 07:20:58;;;;;;;;;22.67;21.00;;;;;-144.24;100.00;61606.88;5019290;28;56611;-72
2024/01/25 07:23:24;;;;;;;;;20.00;18.67;;;;;-144.24;100.00;61566.66;5018763;28;45567;-74
2024/01/25 07:25:50;;;;;;;;;27.00;21.00;;;;;-144.24;100.00;61610.91;5015704;28;45751;-72
2024/01/25 07:28:18;;;;;;;;;17.33;16.00;;;;;-144.24;100.00;61470.16;5009910;28;45553;-71
2024/01/25 07:30:46;;;;;;;;;14.00;13.33;;;;;-144.24;100.00;61476.19;5013111;28;45511;-72
2024/01/25 07:33:12;;;;;;;;;19.00;14.00;;;;;-144.24;100.00;61604.88;5014405;28;45516;-72
2024/01/25 07:35:37;;;;;;;;;16.33;15.33;;;;;-144.24;100.00;61460.09;5023188;28;75237;-71
2024/01/25 07:38:03;;;;;;;;;16.67;16.33;;;;;-144.24;100.00;61437.97;5014132;28;45509;-73
2024/01/25 07:40:28;;;;;;;;;23.33;19.00;;;;;-144.24;100.00;61399.78;5014735;28;45453;-70
2024/01/25 07:42:54;;;;;;;;;19.33;15.67;;;;;-144.24;100.00;61327.38;5014605;28;45301;-71
2024/01/25 07:45:19;;;;;;;;;14.67;12.33;;;;;-144.24;100.00;61508.34;5013011;28;72179;-70
2024/01/25 07:47:44;;;;;;;;;15.00;14.00;;;;;-144.24;100.00;61580.75;5014839;28;68763;-71
2024/01/25 07:50:10;;;;;;;;;21.33;19.00;;;;;-144.24;100.00;61803.94;5013108;28;66625;-70
2024/01/25 07:52:35;;;;;;;;;22.67;18.00;;;;;-144.24;100.00;61610.91;5011090;28;45701;-70
2024/01/25 07:55:00;;;;;;;;;16.00;14.33;;;;;-144.24;100.00;61731.56;5012369;28;72390;-70
2024/01/25 07:57:26;;;;;;;;;15.00;15.00;;;;;-144.24;100.00;62045.28;5011635;28;68101;-70
2024/01/25 07:59:51;;;;;;;;;22.33;17.00;;;;;-144.24;100.00;61978.91;5013028;28;66599;-70
2024/01/25 08:02:16;;;;;;;;;21.33;15.00;;;;;-144.24;100.00;61791.88;5012535;28;45450;-70
2024/01/25 08:04:42;;;;;;;;;20.00;16.33;;;;;-144.24;100.00;61755.69;5010126;28;46614;-70
2024/01/25 08:07:08;;;;;;;;;18.33;16.00;;;;;-144.24;100.00;61964.81;5015093;28;45394;-70
2024/01/25 08:09:34;;;;;;;;;22.00;18.33;;;;;-144.24;100.00;62083.47;5017630;28;45494;-70
2024/01/25 08:11:59;;;;;;;;;19.33;15.33;;;;;-144.24;100.00;62184.03;5016930;28;45446;-71
2024/01/25 08:14:24;;;;;;;;;14.33;13.00;;;;;-144.24;100.00;62147.84;5014296;28;75338;-70
2024/01/25 08:16:50;;;;;;;;;18.33;14.67;;;;;-144.24;100.00;61948.75;5014143;28;70520;-70
2024/01/25 08:19:15;;;;;;;;;19.00;14.33;;;;;-144.24;100.00;61960.81;5014377;28;65324;-71
2024/01/25 08:21:40;;;;;;;;;14.67;11.67;;;;;-144.24;100.00;61584.75;5019259;28;63350;-71
2024/01/25 08:24:05;;;;;;;;;19.33;17.33;;;;;-144.24;100.00;61590.78;5016505;28;46315;-70
2024/01/25 08:26:31;;;;;;;;;18.00;15.00;;;;;-144.24;100.00;61431.94;5015782;28;45411;-72
2024/01/25 08:28:56;;;;;;;;;17.67;17.00;;;;;-144.24;100.00;61299.22;5015460;28;54671;-70
2024/01/25 08:31:21;;;;;;;;;16.33;14.67;;;;;-144.24;100.00;61317.34;5016754;28;63672;-72
2024/01/25 08:33:47;;;;;;;;;19.00;16.00;;;;;-144.24;100.00;61464.13;5016797;28;45649;-70
2024/01/25 08:36:19;;;;;;;;;15.33;15.33;;;;;-144.24;100.00;61250.97;5017111;28;45500;-71
2024/01/25 08:38:44;;;;;;;;;18.67;18.67;;;;;-144.24;100.00;61307.28;5016959;28;45402;-71
2024/01/25 08:41:11;;;;;;;;;26.33;22.00;;;;;-144.24;100.00;60981.56;5016740;28;45482;-70
2024/01/25 08:43:36;;;;;;;;;15.33;13.67;;;;;-144.24;100.00;60798.59;5017347;28;46136;-71
2024/01/25 08:46:02;;;;;;;;;20.33;17.67;;;;;-144.24;100.00;60967.50;5016090;28;46197;-70
2024/01/25 08:48:27;;;;;;;;;12.67;11.00;;;;;-144.24;100.00;60824.75;5016960;28;45461;-71
2024/01/25 08:50:54;;;;;;;;;15.00;11.67;;;;;-144.24;100.00;60565.41;5017194;28;45430;-70
2024/01/25 08:53:22;;;;;;;;;23.00;19.00;;;;;-144.24;100.00;60171.41;5017762;28;46369;-71
2024/01/25 08:55:47;;;;;;;;;12.00;9.67;;;;;-144.24;100.00;59908.09;5016174;28;45398;-70
2024/01/25 08:58:13;;;;;;;;;18.67;12.67;;;;;-144.24;100.00;59821.66;5017857;28;45530;-70
2024/01/25 09:00:38;;;;;;;;;22.33;14.33;;;;;-144.24;100.00;59504.09;5015407;28;65310;-73
2024/01/25 09:03:03;;;;;;;;;15.00;8.00;;;;;-144.24;100.00;59512.16;5014911;28;47768;-71
2024/01/25 09:05:30;;;;;;;;;12.00;7.67;;;;;-144.24;100.00;59379.50;5016134;28;45408;-72
2024/01/25 09:07:56;;;;;;;;;11.00;8.00;;;;;-144.24;100.00;59152.41;5016111;28;46797;-71
2024/01/25 09:10:21;;;;;;;;;8.33;8.33;;;;;-144.24;100.00;58941.41;5015690;28;45642;-70
2024/01/25 09:12:46;;;;;;;;;9.67;6.67;;;;;-144.24;100.00;58615.88;5015808;28;56365;-71
2024/01/25 09:15:12;;;;;;;;;12.33;7.33;;;;;-144.24;100.00;58350.66;5014752;28;71897;-73
2024/01/25 09:17:37;;;;;;;;;8.00;8.00;;;;;-144.24;100.00;57997.06;5015651;28;45493;-71
2024/01/25 09:20:03;;;;;;;;;9.00;7.00;;;;;-144.24;100.00;57565.16;5015191;28;45747;-71
2024/01/25 09:22:28;;;;;;;;;9.67;6.00;;;;;-144.24;100.00;57065.00;5015013;28;46246;-71
2024/01/25 09:24:54;;;;;;;;;7.67;6.33;;;;;-144.24;100.00;56866.16;5015401;28;66121;-72
2024/01/25 09:27:19;;;;;;;;;5.67;5.00;;;;;-144.24;100.00;56595.03;5014408;28;63376;-71
2024/01/25 09:29:44;;;;;;;;;8.33;7.00;;;;;-144.24;100.00;56350.00;5015553;28;59544;-69
2024/01/25 09:32:10;;;;;;;;;10.33;6.00;;;;;-144.24;100.00;56291.78;5014642;28;47289;-69
2024/01/25 09:34:37;;;;;;;;;8.67;6.33;;;;;-144.24;100.00;56115.06;5014026;28;68406;-68
2024/01/25 09:37:02;;;;;;;;;13.00;7.00;;;;;-144.24;100.00;55976.50;5015584;28;45526;-68
2024/01/25 09:39:28;;;;;;;;;6.00;6.00;;;;;-144.24;100.00;55807.84;5015023;28;45527;-71
2024/01/25 09:41:53;;;;;;;;;7.33;6.00;;;;;-144.24;100.00;55524.75;5015923;28;45700;-69
2024/01/25 09:44:19;;;;;;;;;6.00;6.00;;;;;-144.24;100.00;55530.75;5015971;28;46525;-69
2024/01/25 09:46:45;;;;;;;;;11.67;6.00;;;;;-144.24;100.00;55259.72;5016757;28;45361;-69
2024/01/25 09:49:11;;;;;;;;;5.67;5.00;;;;;-144.24;100.00;55279.81;5014718;28;45262;-69
2024/01/25 09:51:39;;;;;;;;;5.67;5.67;;;;;-144.24;100.00;55309.91;5016668;28;45944;-69
2024/01/25 09:54:05;;;;;;;;;6.00;6.00;;;;;-144.24;100.00;55089.09;5016155;28;45328;-70
2024/01/25 09:56:32;;;;;;;;;8.33;7.00;;;;;-144.24;100.00;55097.13;5016171;28;45378;-69
2024/01/25 09:58:58;;;;;;;;;18.33;14.33;;;;;-144.24;100.00;54980.69;5014850;28;45653;-71
2024/01/25 10:01:23;;;;;;;;;10.33;8.00;;;;;-144.24;100.00;54908.41;5016052;28;45980;-69
2024/01/25 10:03:49;;;;;;;;;8.33;6.67;;;;;-144.24;100.00;54990.72;5014532;28;45501;-69
2024/01/25 10:06:15;;;;;;;;;20.00;13.00;;;;;-144.24;100.00;54980.69;5016289;28;45391;-69
2024/01/25 10:11:16;;;;;;;;;10.33;5.33;;;;;-144.24;100.00;54715.69;5044851;28;45481;-70
2024/01/25 10:13:43;;;;;;;;;10.33;7.00;;;;;-144.24;100.00;54868.25;5047894;28;45384;-71
2024/01/25 10:16:15;;;;;;;;;6.67;6.67;;;;;-144.24;100.00;54486.88;5039992;28;45321;-71
2024/01/25 10:18:42;;;;;;;;;8.00;7.00;;;;;-144.24;100.00;54454.75;5041943;28;45408;-70
2024/01/25 10:21:09;;;;;;;;;5.00;3.33;;;;;-144.24;100.00;54460.78;5026229;28;46405;-70
2024/01/25 10:23:35;;;;;;;;;9.33;9.33;;;;;-144.24;100.00;54330.31;5033309;28;45448;-70
2024/01/25 10:26:00;;;;;;;;;7.00;6.00;;;;;-144.24;100.00;54290.16;5045664;28;45419;-70
2024/01/25 10:28:28;;;;;;;;;11.67;8.00;;;;;-144.24;100.00;54181.78;5044250;28;45307;-70
2024/01/25 10:30:55;;;;;;;;;13.67;10.33;;;;;-144.24;100.00;54029.25;5044559;28;46475;-69
2024/01/25 10:33:21;;;;;;;;;10.33;9.00;;;;;-144.24;100.00;53860.66;5039766;28;45523;-70
2024/01/25 10:35:49;;;;;;;;;9.67;8.67;;;;;-144.24;100.00;53800.44;5042070;28;67915;-71
2024/01/25 10:38:17;;;;;;;;;10.00;7.33;;;;;-144.24;100.00;53639.91;5038087;28;45399;-72
2024/01/25 10:40:43;;;;;;;;;10.00;10.00;;;;;-144.24;100.00;53375.03;5052536;28;46028;-71
2024/01/25 10:43:09;;;;;;;;;12.00;10.00;;;;;-144.24;100.00;53364.97;5031885;28;45420;-69
2024/01/25 10:45:34;;;;;;;;;9.67;8.00;;;;;-144.24;100.00;53310.81;5050769;28;45493;-70
2024/01/25 10:47:59;;;;;;;;;6.00;5.00;;;;;-144.24;100.00;53074.03;5023319;28;57325;-70
2024/01/25 10:50:25;;;;;;;;;10.33;6.67;;;;;-144.24;100.00;53084.06;5044803;28;72588;-73
2024/01/25 10:52:51;;;;;;;;;12.00;8.00;;;;;-144.24;100.00;52835.25;5049762;28;45510;-71
2024/01/25 10:55:16;;;;;;;;;12.33;7.67;;;;;-144.24;100.00;52722.91;5031462;28;64585;-69
2024/01/25 10:57:45;;;;;;;;;5.00;5.00;;;;;-144.24;100.00;52440.03;5038869;28;45130;-70